Details From EGFF - Cardiff
To LFLB - Aix-les-bains
Flight Number -
Tags Real Generated
Created
Modified
Stats Distance 504 nm / 934 km
Max Altitude 0 ft / 0 m
Waypoints 4
Social Downloads 0
Likes 0
Share VATSIM

Download

Looking for another format? Having issues loading an existing format? Contact us
Advertisement - Login to hide

Notes

Generated

Route

EGFF ADADA DEPUL LFLB

ID Type Via Altitude Latitude Longitude Leg Dist Tot Dist Heading (true) Name
O EGFF APT - 0 ft / 0 m 51.40151˚ -3.35867˚ - 0 nm - -
ADADA FIX - 0 ft / 0 m 48.29500˚ 2.00361˚ 279 nm 279 nm 130° / 134° -
DEPUL FIX - 0 ft / 0 m 45.92500˚ 5.49444˚ 201 nm 480 nm 134° / 136° -
O LFLB APT - 0 ft / 0 m 45.63794˚ 5.88121˚ 23 nm 504 nm 137° / 137° Aix-Les-Bains

Altitude Profile

Advertisement - Login to hide

Weather


0- 5 10 15 20 25 30 35+ Temperature / ° C

Clouds and Precipitation
Forecast for 2018-05-23 06:00 UTC. Updated 2 hours ago

Ground ~20,000 ft ~40,000 ft Winds

EGFF

Details ICAO EGFF (CWL)
Name Cardiff
Region United Kingdom
Timezone Europe/London (UTC+1.0)
Stats Elevation 220 ft / 67 m (AMSL)
Location 51.396565° -3.343202°
Runways 1
Magnetic Variation 1.512° W

METAR

EGFF 230720Z 05010KT 9999 6000SE VCFG FEW006 BKN010 11/08 Q1024

Decode

TAF

TAF EGFF 230509Z 2306/2406 04008KT CAVOK PROB30 2306/2308 7000 BKN012 PROB30 TEMPO 2403/2406 4000 SHRA

Decode

Departure Runways

ID Width Length Bearing (true) Bearing (mag) Surface Threshold Offset Overrun Length
12 131 ft / 40 m 7,831 ft / 2,387 m 116.82° 118.33° Asphalt 715 ft / 218 m 0 ft / 0 m
30 131 ft / 40 m 7,831 ft / 2,387 m 296.84° 298.35° Asphalt 594 ft / 181 m 0 ft / 0 m

LFLB

Details ICAO LFLB (CMF)
Name Aix-Les-Bains
Region France
Timezone Europe/Paris (UTC+2.0)
Stats Elevation 779 ft / 237 m (AMSL)
Location 45.636234° 5.880898°
Runways 2
Magnetic Variation 1.742° E

METAR

LFLB 230700Z AUTO 16005KT 130V200 9999 FEW012 SCT064 BKN074 17/14 Q1017 NOSIG

Decode

TAF

TAF LFLB 230500Z 2306/2406 VRB05KT 9999 SCT030 BKN080 PROB40 TEMPO 2309/2321 SHRA FEW030CB SCT040TCU PROB30 TEMPO 2312/2318 VRB15G25KT 2000 TSRA SCT025CB BKN040TCU

Decode

Destination Runways

ID Width Length Bearing (true) Bearing (mag) Surface Threshold Offset Overrun Length
18 148 ft / 45 m 5,452 ft / 1,662 m 176.72° 174.98° Asphalt 26 ft / 8 m 774 ft / 236 m
18L 197 ft / 60 m 2,309 ft / 704 m 176.70° 174.96° Grass 0 ft / 0 m 0 ft / 0 m
36 148 ft / 45 m 5,452 ft / 1,662 m 356.72° 354.98° Asphalt 23 ft / 7 m 456 ft / 139 m
36R 197 ft / 60 m 2,309 ft / 704 m 356.70° 354.96° Grass 315 ft / 96 m 0 ft / 0 m

Approach Navaids

Runway Type Ident Frequency Range Bearing (true) Bearing (mag) Slope Elevation
18 Localiser CY 109.50 MHz 27 nm / 50 km 176.73° 174.99° - 779 ft / 237 m (AMSL)
18 Glidescope CY 109.50 MHz 27 nm / 50 km 176.73° 174.99° 4.46° 779 ft / 237 m (AMSL)
18 DME CY 109.50 MHz 27 nm / 50 km - - - 779 ft / 237 m (AMSL)

Popular Alternatives